createdAt,value
2022-11-30T00:01:53.968Z,102034.00
2022-11-30T00:11:55.261Z,102036.66
2022-11-30T00:21:56.503Z,102041.03
2022-11-30T00:31:57.752Z,102041.03
2022-11-30T00:41:58.954Z,102047.09
2022-11-30T00:52:00.187Z,102052.31
2022-11-30T01:02:01.518Z,102053.06
2022-11-30T01:12:02.854Z,102056.53
2022-11-30T01:22:04.106Z,102058.06
2022-11-30T01:32:05.339Z,102057.13
2022-11-30T01:42:06.604Z,102056.22
2022-11-30T01:52:07.890Z,102057.00
2022-11-30T02:02:09.265Z,102071.81
2022-11-30T02:12:10.516Z,102071.81
2022-11-30T02:22:11.786Z,102069.09
2022-11-30T02:32:13.052Z,102075.31
2022-11-30T02:42:14.348Z,102079.53
2022-11-30T02:52:15.674Z,102086.50
2022-11-30T03:02:16.969Z,102087.34
2022-11-30T03:12:18.325Z,102090.88
2022-11-30T03:22:19.609Z,102088.16
2022-11-30T03:32:20.867Z,102082.06
2022-11-30T03:42:22.127Z,102089.91
2022-11-30T03:52:23.375Z,102092.44
2022-11-30T04:02:24.677Z,102090.75
2022-11-30T04:12:25.994Z,102095.91
2022-11-30T04:22:27.292Z,102092.41
2022-11-30T04:32:28.534Z,102095.00
2022-11-30T04:42:29.782Z,102092.38
2022-11-30T04:52:32.222Z,102111.47
2022-11-30T05:02:33.460Z,102093.09
2022-11-30T05:12:34.713Z,102101.81
2022-11-30T05:22:36.049Z,102106.13
2022-11-30T05:32:37.286Z,102114.03
2022-11-30T05:42:38.525Z,102119.16
2022-11-30T05:52:39.776Z,102136.63
2022-11-30T06:02:41.158Z,102139.34
2022-11-30T06:12:42.476Z,102143.59
2022-11-30T06:22:43.764Z,102144.47
2022-11-30T06:32:45.001Z,102151.63
2022-11-30T06:42:46.234Z,102149.00
2022-11-30T06:52:47.490Z,102152.47
2022-11-30T07:02:48.881Z,102162.06
2022-11-30T07:12:50.249Z,102173.41
2022-11-30T07:22:51.646Z,102170.84
2022-11-30T07:32:52.886Z,102191.81
2022-11-30T07:42:54.366Z,102191.91
2022-11-30T07:52:55.744Z,102202.34
2022-11-30T08:02:57.174Z,102209.25
2022-11-30T08:12:58.551Z,102217.13
2022-11-30T08:22:59.897Z,102230.19
2022-11-30T08:33:01.282Z,102230.06
2022-11-30T08:43:02.615Z,102244.84
2022-11-30T08:53:06.487Z,102251.13
2022-11-30T09:03:08.076Z,102253.81
2022-11-30T09:13:09.433Z,102260.75
2022-11-30T09:23:10.855Z,102271.06
2022-11-30T09:33:12.206Z,102270.19
2022-11-30T09:43:13.578Z,102283.19
2022-11-30T09:53:14.975Z,102276.25
2022-11-30T10:03:16.434Z,102280.59
2022-11-30T10:13:17.857Z,102264.03
2022-11-30T10:23:19.162Z,102270.97
2022-11-30T10:33:20.451Z,102260.56
2022-11-30T10:43:21.698Z,102249.22
2022-11-30T10:53:23.054Z,102249.22
2022-11-30T11:03:24.335Z,102240.63
2022-11-30T11:13:25.738Z,102234.34
2022-11-30T11:23:26.991Z,102236.00
2022-11-30T11:33:28.230Z,102238.66
2022-11-30T11:43:29.622Z,102232.63
2022-11-30T11:53:31.569Z,102236.03
2022-11-30T12:03:32.974Z,102235.25
2022-11-30T12:13:34.260Z,102235.25
2022-11-30T12:23:35.557Z,102237.88
2022-11-30T12:33:36.978Z,102238.03
2022-11-30T12:43:38.294Z,102244.03
2022-11-30T12:53:39.549Z,102239.69
2022-11-30T13:03:40.919Z,102244.09
2022-11-30T13:13:42.332Z,102248.50
2022-11-30T13:23:43.592Z,102261.63
2022-11-30T13:33:44.956Z,102247.63
2022-11-30T13:43:46.292Z,102251.19
2022-11-30T13:53:47.714Z,102256.38
2022-11-30T14:03:52.978Z,102259.94
2022-11-30T14:13:55.650Z,102273.88
2022-11-30T14:23:57.040Z,102285.22
2022-11-30T14:33:58.410Z,102281.72
2022-11-30T14:43:59.799Z,102292.19
2022-11-30T14:54:01.173Z,102289.72
2022-11-30T15:04:02.490Z,102299.34
2022-11-30T15:14:03.877Z,102291.66
2022-11-30T15:24:05.178Z,102289.84
2022-11-30T15:34:06.592Z,102295.25
2022-11-30T15:44:07.957Z,102286.34
2022-11-30T15:54:09.357Z,102300.25
2022-11-30T16:04:10.752Z,102309.84
2022-11-30T16:14:12.096Z,102303.81
2022-11-30T16:24:13.375Z,102311.69
2022-11-30T16:34:14.805Z,102330.03
2022-11-30T16:44:16.193Z,102333.50
2022-11-30T16:54:17.518Z,102337.84
2022-11-30T17:04:18.862Z,102343.97
2022-11-30T17:14:20.234Z,102364.94
2022-11-30T17:24:21.622Z,102364.94
2022-11-30T17:34:22.971Z,102355.31
2022-11-30T17:44:24.324Z,102363.16
2022-11-30T17:54:25.715Z,102357.97
2022-11-30T18:04:27.050Z,102367.63
2022-11-30T18:14:28.432Z,102370.22
2022-11-30T18:24:29.791Z,102381.56
2022-11-30T18:34:31.156Z,102390.19
2022-11-30T18:44:32.447Z,102405.97
2022-11-30T18:54:33.876Z,102411.13
2022-11-30T19:04:35.161Z,102422.50
2022-11-30T19:14:36.453Z,102415.53
2022-11-30T19:24:37.803Z,102402.44
2022-11-30T19:34:39.171Z,102411.22
2022-11-30T19:44:40.457Z,102423.47
2022-11-30T19:54:41.768Z,102422.59
2022-11-30T20:15:06.726Z,102434.75
2022-11-30T20:25:07.988Z,102446.06
2022-11-30T20:35:09.402Z,102439.03
2022-11-30T20:45:10.772Z,102444.41
2022-11-30T20:55:12.054Z,102443.56
2022-11-30T21:05:13.340Z,102447.94
2022-11-30T21:15:14.724Z,102461.91
2022-11-30T21:25:16.157Z,102449.72
2022-11-30T21:35:17.411Z,102447.94
2022-11-30T21:45:18.826Z,102458.41
2022-11-30T21:55:20.192Z,102462.75
2022-11-30T22:05:21.663Z,102454.06
2022-11-30T22:15:22.944Z,102464.53
2022-11-30T22:25:24.269Z,102463.63
2022-11-30T22:35:25.646Z,102470.63
2022-11-30T22:45:26.951Z,102474.13
2022-11-30T22:55:28.437Z,102479.34
2022-11-30T23:05:29.942Z,102478.47
2022-11-30T23:15:31.202Z,102477.59
2022-11-30T23:25:32.464Z,102474.13
2022-11-30T23:35:33.742Z,102468.78
2022-11-30T23:45:35.034Z,102478.31
2022-11-30T23:55:36.333Z,102478.34
